EDW49R LSZH-BKPR
Flight info
| Callsign | EDW49R |
|---|---|
| Flight time | 1h 40m |
| Altitude | 37000 |
| Route | DEGES Z2 XEBIX L607 ELMEM N606 GIRIS DCT PEVAL DCT OKLAX DCT RINAV DCT ARBER ARBER1D |
| Aircraft | A320/M-SDE3FGHIRWY/LB1 |
Departure
| Time | 2026-05-04 14:34 |
|---|---|
| Airport | Zürich Airport (LSZH) |
Arrival
| Time | 2026-05-04 16:14 |
|---|---|
| Airport | Priština Adem Jashari International Airport (BKPR) |
| Time | Latitude | Longitude | Altitude | Speed | Heading |
|---|---|---|---|---|---|
| 2026-05-04 14:15 | 47.44698 | 8.55977 | 1404 ft | 0 kts | 245° |
| 2026-05-04 14:28 | 47.44698 | 8.55975 | 1396 ft | 1 kts | 245° |
| 2026-05-04 14:28 | 47.44681 | 8.55924 | 1400 ft | 7 kts | 245° |
| 2026-05-04 14:29 | 47.44792 | 8.55786 | 1395 ft | 16 kts | 335° |
| 2026-05-04 14:29 | 47.45031 | 8.55626 | 1406 ft | 21 kts | 335° |
| 2026-05-04 14:30 | 47.45173 | 8.55527 | 1409 ft | 24 kts | 334° |
| 2026-05-04 14:30 | 47.45325 | 8.55423 | 1403 ft | 24 kts | 336° |
| 2026-05-04 14:30 | 47.45525 | 8.55497 | 1409 ft | 15 kts | 84° |
| 2026-05-04 14:31 | 47.45514 | 8.55666 | 1407 ft | 18 kts | 96° |
| 2026-05-04 14:31 | 47.45482 | 8.56115 | 1407 ft | 21 kts | 96° |
| 2026-05-04 14:32 | 47.45591 | 8.56430 | 1414 ft | 18 kts | 68° |
| 2026-05-04 14:32 | 47.45582 | 8.56621 | 1420 ft | 19 kts | 93° |
| 2026-05-04 14:32 | 47.45569 | 8.56832 | 1420 ft | 22 kts | 96° |
| 2026-05-04 14:32 | 47.45592 | 8.57006 | 1423 ft | 17 kts | 34° |
| 2026-05-04 14:33 | 47.45662 | 8.57021 | 1425 ft | 7 kts | 330° |
| 2026-05-04 14:33 | 47.45665 | 8.57002 | 1425 ft | 2 kts | 271° |
| 2026-05-04 14:33 | 47.45694 | 8.56577 | 1416 ft | 81 kts | 276° |
| 2026-05-04 14:33 | 47.45775 | 8.55425 | 1400 ft | 142 kts | 276° |
| 2026-05-04 14:34 | 47.45890 | 8.53844 | 1806 ft | 149 kts | 276° |
| 2026-05-04 14:34 | 47.45987 | 8.52434 | 2694 ft | 129 kts | 276° |
| 2026-05-04 14:34 | 47.46076 | 8.51131 | 3416 ft | 126 kts | 277° |
| 2026-05-04 14:34 | 47.46181 | 8.49832 | 3979 ft | 131 kts | 278° |
| 2026-05-04 14:35 | 47.46296 | 8.48452 | 4500 ft | 142 kts | 267° |
| 2026-05-04 14:35 | 47.45921 | 8.46989 | 4923 ft | 163 kts | 227° |
| 2026-05-04 14:35 | 47.45051 | 8.45893 | 5742 ft | 162 kts | 218° |
| 2026-05-04 14:35 | 47.44126 | 8.45000 | 6599 ft | 160 kts | 197° |
| 2026-05-04 14:36 | 47.42959 | 8.45000 | 7065 ft | 183 kts | 160° |
| 2026-05-04 14:36 | 47.41984 | 8.46366 | 7437 ft | 215 kts | 114° |
| 2026-05-04 14:36 | 47.41813 | 8.48706 | 7995 ft | 244 kts | 87° |
| 2026-05-04 14:36 | 47.42086 | 8.51299 | 8626 ft | 270 kts | 80° |
| 2026-05-04 14:37 | 47.42532 | 8.54097 | 9487 ft | 285 kts | 78° |
| 2026-05-04 14:37 | 47.43030 | 8.56982 | 10444 ft | 297 kts | 77° |
| 2026-05-04 14:37 | 47.43547 | 8.60072 | 10928 ft | 322 kts | 78° |
| 2026-05-04 14:37 | 47.44075 | 8.63415 | 11467 ft | 343 kts | 79° |
| 2026-05-04 14:38 | 47.44589 | 8.66874 | 12277 ft | 353 kts | 79° |
| 2026-05-04 14:38 | 47.45099 | 8.70459 | 13195 ft | 360 kts | 80° |
| 2026-05-04 14:38 | 47.45604 | 8.74101 | 14073 ft | 366 kts | 80° |
| 2026-05-04 14:38 | 47.46113 | 8.77824 | 14882 ft | 372 kts | 80° |
| 2026-05-04 14:39 | 47.46441 | 8.81625 | 15719 ft | 375 kts | 90° |
| 2026-05-04 14:39 | 47.46257 | 8.85539 | 16462 ft | 379 kts | 103° |
| 2026-05-04 14:39 | 47.45693 | 8.89362 | 17212 ft | 383 kts | 105° |
| 2026-05-04 14:40 | 47.44549 | 8.97096 | 18670 ft | 393 kts | 105° |
| 2026-05-04 14:40 | 47.43983 | 9.01069 | 19324 ft | 397 kts | 105° |
| 2026-05-04 14:40 | 47.43414 | 9.05080 | 19971 ft | 401 kts | 105° |
| 2026-05-04 14:40 | 47.43025 | 9.07807 | 20391 ft | 403 kts | 105° |
| 2026-05-04 14:41 | 47.42254 | 9.13195 | 21212 ft | 407 kts | 105° |
| 2026-05-04 14:41 | 47.41868 | 9.15969 | 21598 ft | 411 kts | 103° |
| 2026-05-04 14:41 | 47.41900 | 9.24514 | 22629 ft | 426 kts | 81° |
| 2026-05-04 14:42 | 47.43231 | 9.33133 | 23597 ft | 433 kts | 80° |
| 2026-05-04 14:42 | 47.43895 | 9.37485 | 23983 ft | 436 kts | 80° |
| 2026-05-04 14:42 | 47.44558 | 9.41872 | 24373 ft | 438 kts | 80° |
| 2026-05-04 14:43 | 47.45218 | 9.46280 | 24734 ft | 440 kts | 80° |
| 2026-05-04 14:43 | 47.45878 | 9.50718 | 25073 ft | 443 kts | 80° |
| 2026-05-04 14:43 | 47.46541 | 9.55181 | 25422 ft | 445 kts | 80° |
| 2026-05-04 14:43 | 47.47038 | 9.59689 | 25774 ft | 444 kts | 88° |
| 2026-05-04 14:44 | 47.47062 | 9.64238 | 26089 ft | 443 kts | 97° |
| 2026-05-04 14:44 | 47.46813 | 9.68732 | 26424 ft | 444 kts | 97° |
| 2026-05-04 14:44 | 47.46556 | 9.73347 | 26762 ft | 446 kts | 97° |
| 2026-05-04 14:44 | 47.46307 | 9.77881 | 27093 ft | 448 kts | 97° |
| 2026-05-04 14:45 | 47.46055 | 9.82464 | 27411 ft | 450 kts | 97° |
| 2026-05-04 14:45 | 47.45802 | 9.87075 | 27706 ft | 452 kts | 97° |
| 2026-05-04 14:45 | 47.45545 | 9.91716 | 28031 ft | 453 kts | 97° |
| 2026-05-04 14:45 | 47.45278 | 9.96426 | 28346 ft | 455 kts | 97° |
| 2026-05-04 14:46 | 47.45009 | 10.01090 | 28631 ft | 457 kts | 97° |
| 2026-05-04 14:46 | 47.44734 | 10.05767 | 28911 ft | 459 kts | 97° |
| 2026-05-04 14:46 | 47.44456 | 10.10475 | 29128 ft | 461 kts | 97° |
| 2026-05-04 14:46 | 47.44180 | 10.15206 | 29397 ft | 462 kts | 97° |
| 2026-05-04 14:47 | 47.43791 | 10.19914 | 29653 ft | 462 kts | 103° |
| 2026-05-04 14:47 | 47.43161 | 10.24584 | 29898 ft | 463 kts | 104° |
| 2026-05-04 14:47 | 47.42537 | 10.29198 | 30134 ft | 465 kts | 104° |
| 2026-05-04 14:47 | 47.41904 | 10.33886 | 30363 ft | 466 kts | 104° |
| 2026-05-04 14:48 | 47.41132 | 10.38581 | 30589 ft | 464 kts | 111° |
| 2026-05-04 14:48 | 47.39890 | 10.42884 | 30854 ft | 459 kts | 121° |
| 2026-05-04 14:48 | 47.38166 | 10.46814 | 31098 ft | 455 kts | 131° |
| 2026-05-04 14:48 | 47.36031 | 10.50223 | 31377 ft | 450 kts | 141° |
| 2026-05-04 14:49 | 47.33566 | 10.53024 | 31641 ft | 446 kts | 150° |
| 2026-05-04 14:49 | 47.30871 | 10.55246 | 31923 ft | 443 kts | 155° |
| 2026-05-04 14:49 | 47.28159 | 10.57380 | 32197 ft | 442 kts | 155° |
| 2026-05-04 14:49 | 47.25452 | 10.59519 | 32484 ft | 441 kts | 155° |
| 2026-05-04 14:50 | 47.22753 | 10.61656 | 32772 ft | 440 kts | 155° |
| 2026-05-04 14:50 | 47.20061 | 10.63790 | 33013 ft | 439 kts | 155° |
| 2026-05-04 14:50 | 47.17371 | 10.65886 | 33284 ft | 437 kts | 158° |
| 2026-05-04 14:50 | 47.14552 | 10.67565 | 33571 ft | 434 kts | 162° |
| 2026-05-04 14:51 | 47.11725 | 10.69110 | 33847 ft | 434 kts | 162° |
| 2026-05-04 14:51 | 47.08889 | 10.70660 | 34086 ft | 434 kts | 162° |
| 2026-05-04 14:51 | 47.06059 | 10.72205 | 34289 ft | 435 kts | 162° |
| 2026-05-04 14:51 | 47.03218 | 10.73757 | 34454 ft | 435 kts | 162° |
| 2026-05-04 14:52 | 47.00393 | 10.75310 | 34741 ft | 433 kts | 162° |
| 2026-05-04 14:52 | 46.97582 | 10.76883 | 34978 ft | 432 kts | 161° |
| 2026-05-04 14:52 | 46.94774 | 10.78478 | 35196 ft | 433 kts | 161° |
| 2026-05-04 14:52 | 46.91967 | 10.80078 | 35354 ft | 433 kts | 161° |
| 2026-05-04 14:53 | 46.89151 | 10.81679 | 35508 ft | 434 kts | 161° |
| 2026-05-04 14:53 | 46.86342 | 10.83270 | 35688 ft | 434 kts | 161° |
| 2026-05-04 14:53 | 46.83528 | 10.84860 | 35853 ft | 435 kts | 162° |
| 2026-05-04 14:53 | 46.80704 | 10.86477 | 36016 ft | 436 kts | 159° |
| 2026-05-04 14:54 | 46.78027 | 10.88563 | 36176 ft | 440 kts | 149° |
| 2026-05-04 14:54 | 46.75598 | 10.91302 | 36329 ft | 444 kts | 140° |
| 2026-05-04 14:54 | 46.73482 | 10.94616 | 36467 ft | 447 kts | 133° |
| 2026-05-04 14:54 | 46.71459 | 10.98054 | 36629 ft | 448 kts | 134° |
| 2026-05-04 14:55 | 46.69422 | 11.01496 | 36787 ft | 449 kts | 134° |
| 2026-05-04 14:55 | 46.67374 | 11.04939 | 36961 ft | 449 kts | 134° |
| 2026-05-04 14:55 | 46.63254 | 11.11851 | 37053 ft | 455 kts | 134° |
| 2026-05-04 14:56 | 46.59083 | 11.18833 | 37060 ft | 459 kts | 134° |
| 2026-05-04 14:56 | 46.54876 | 11.25861 | 37002 ft | 463 kts | 134° |
| 2026-05-04 14:57 | 46.50616 | 11.32941 | 37006 ft | 466 kts | 134° |
| 2026-05-04 14:57 | 46.46339 | 11.40034 | 37006 ft | 469 kts | 134° |
| 2026-05-04 14:58 | 46.42023 | 11.47186 | 37007 ft | 471 kts | 134° |
| 2026-05-04 14:58 | 46.37721 | 11.54297 | 37070 ft | 472 kts | 134° |
| 2026-05-04 14:59 | 46.33384 | 11.61448 | 37079 ft | 472 kts | 134° |
| 2026-05-04 15:00 | 46.26835 | 11.72213 | 37078 ft | 473 kts | 134° |
| 2026-05-04 15:00 | 46.22475 | 11.79347 | 37081 ft | 474 kts | 134° |
| 2026-05-04 15:01 | 46.15934 | 11.90023 | 37079 ft | 475 kts | 134° |
| 2026-05-04 15:01 | 46.11553 | 11.97153 | 37081 ft | 474 kts | 134° |
| 2026-05-04 15:02 | 46.07167 | 12.04254 | 37075 ft | 474 kts | 134° |
| 2026-05-04 15:02 | 46.02779 | 12.11360 | 37072 ft | 475 kts | 134° |
| 2026-05-04 15:03 | 45.98385 | 12.18453 | 37068 ft | 476 kts | 134° |
| 2026-05-04 15:03 | 45.93970 | 12.25549 | 37073 ft | 476 kts | 134° |
| 2026-05-04 15:04 | 45.89555 | 12.32625 | 37061 ft | 476 kts | 134° |
| 2026-05-04 15:04 | 45.85142 | 12.39693 | 37076 ft | 475 kts | 134° |
| 2026-05-04 15:05 | 45.80722 | 12.46754 | 37074 ft | 475 kts | 134° |
| 2026-05-04 15:05 | 45.76298 | 12.53808 | 37071 ft | 475 kts | 134° |
| 2026-05-04 15:06 | 45.71877 | 12.60842 | 37068 ft | 475 kts | 135° |
| 2026-05-04 15:07 | 45.65228 | 12.71372 | 37058 ft | 476 kts | 135° |
| 2026-05-04 15:07 | 45.60781 | 12.78390 | 37064 ft | 476 kts | 135° |
| 2026-05-04 15:08 | 45.56330 | 12.85394 | 37066 ft | 476 kts | 135° |
| 2026-05-04 15:08 | 45.51878 | 12.92391 | 37070 ft | 476 kts | 135° |
| 2026-05-04 15:09 | 45.47421 | 12.99383 | 37066 ft | 477 kts | 135° |
| 2026-05-04 15:09 | 45.42950 | 13.06366 | 37067 ft | 477 kts | 135° |
| 2026-05-04 15:10 | 45.36231 | 13.16828 | 37076 ft | 478 kts | 135° |
| 2026-05-04 15:11 | 45.29731 | 13.27590 | 37087 ft | 481 kts | 127° |
| 2026-05-04 15:11 | 45.25918 | 13.35383 | 37084 ft | 481 kts | 127° |
| 2026-05-04 15:12 | 45.22073 | 13.43158 | 37092 ft | 481 kts | 127° |
| 2026-05-04 15:12 | 45.18213 | 13.50912 | 37094 ft | 481 kts | 127° |
| 2026-05-04 15:13 | 45.14348 | 13.58678 | 37095 ft | 482 kts | 127° |
| 2026-05-04 15:13 | 45.10482 | 13.66442 | 37105 ft | 482 kts | 127° |
| 2026-05-04 15:14 | 45.06604 | 13.74199 | 37108 ft | 483 kts | 127° |
| 2026-05-04 15:14 | 45.02718 | 13.81952 | 37115 ft | 483 kts | 127° |
| 2026-05-04 15:15 | 44.98827 | 13.89698 | 37112 ft | 484 kts | 127° |
| 2026-05-04 15:15 | 44.94931 | 13.97445 | 37111 ft | 484 kts | 127° |
| 2026-05-04 15:16 | 44.89069 | 14.09038 | 37111 ft | 484 kts | 128° |
| 2026-05-04 15:17 | 44.83182 | 14.20628 | 37118 ft | 485 kts | 127° |
| 2026-05-04 15:17 | 44.77286 | 14.32206 | 37120 ft | 485 kts | 127° |
| 2026-05-04 15:18 | 44.73341 | 14.39921 | 37121 ft | 486 kts | 127° |
| 2026-05-04 15:19 | 44.68078 | 14.50172 | 37117 ft | 486 kts | 128° |
| 2026-05-04 15:19 | 44.62141 | 14.61720 | 37124 ft | 486 kts | 127° |
| 2026-05-04 15:20 | 44.58173 | 14.69404 | 37123 ft | 486 kts | 127° |
| 2026-05-04 15:20 | 44.54193 | 14.77084 | 37123 ft | 487 kts | 127° |
| 2026-05-04 15:21 | 44.50203 | 14.84765 | 37126 ft | 487 kts | 127° |
| 2026-05-04 15:22 | 44.44209 | 14.96267 | 37129 ft | 488 kts | 128° |
| 2026-05-04 15:22 | 44.38193 | 15.07746 | 37124 ft | 488 kts | 128° |
| 2026-05-04 15:23 | 44.34173 | 15.15401 | 37120 ft | 488 kts | 127° |
| 2026-05-04 15:23 | 44.30149 | 15.23052 | 37126 ft | 489 kts | 127° |
| 2026-05-04 15:24 | 44.22084 | 15.38330 | 37111 ft | 489 kts | 128° |
| 2026-05-04 15:25 | 44.18031 | 15.45964 | 37109 ft | 489 kts | 127° |
| 2026-05-04 15:26 | 44.11955 | 15.57370 | 37112 ft | 489 kts | 127° |
| 2026-05-04 15:26 | 44.05870 | 15.68776 | 37121 ft | 490 kts | 127° |
| 2026-05-04 15:27 | 43.99755 | 15.80175 | 37129 ft | 490 kts | 127° |
| 2026-05-04 15:28 | 43.93630 | 15.91543 | 37130 ft | 490 kts | 127° |
| 2026-05-04 15:29 | 43.87496 | 16.02907 | 37125 ft | 490 kts | 127° |
| 2026-05-04 15:30 | 43.74352 | 16.30531 | 37132 ft | 492 kts | 123° |
| 2026-05-04 15:31 | 43.68702 | 16.42319 | 37126 ft | 493 kts | 123° |
| 2026-05-04 15:32 | 43.59222 | 16.62038 | 37130 ft | 493 kts | 123° |
| 2026-05-04 15:34 | 43.49721 | 16.81718 | 37112 ft | 494 kts | 123° |
| 2026-05-04 15:34 | 43.44001 | 16.93502 | 37112 ft | 493 kts | 123° |
| 2026-05-04 15:35 | 43.38279 | 17.05276 | 37113 ft | 493 kts | 123° |
| 2026-05-04 15:36 | 43.32520 | 17.17016 | 37106 ft | 494 kts | 123° |
| 2026-05-04 15:36 | 43.28676 | 17.24843 | 37104 ft | 494 kts | 123° |
| 2026-05-04 15:37 | 43.24834 | 17.32670 | 37104 ft | 495 kts | 123° |
| 2026-05-04 15:37 | 43.20988 | 17.40475 | 37120 ft | 494 kts | 123° |
| 2026-05-04 15:38 | 43.17129 | 17.48274 | 37109 ft | 494 kts | 123° |
| 2026-05-04 15:38 | 43.13261 | 17.56061 | 37109 ft | 494 kts | 123° |
| 2026-05-04 15:39 | 43.09385 | 17.63839 | 37106 ft | 494 kts | 123° |
| 2026-05-04 15:40 | 43.03606 | 17.75428 | 37127 ft | 494 kts | 123° |
| 2026-05-04 15:40 | 42.99723 | 17.83179 | 37115 ft | 495 kts | 123° |
| 2026-05-04 15:41 | 42.95823 | 17.90951 | 37117 ft | 495 kts | 123° |
| 2026-05-04 15:41 | 42.91923 | 17.98704 | 37122 ft | 495 kts | 123° |
| 2026-05-04 15:42 | 42.88025 | 18.06426 | 37127 ft | 495 kts | 123° |
| 2026-05-04 15:42 | 42.84115 | 18.14163 | 37128 ft | 495 kts | 123° |
| 2026-05-04 15:43 | 42.80196 | 18.21891 | 37131 ft | 495 kts | 123° |
| 2026-05-04 15:43 | 42.76269 | 18.29609 | 37133 ft | 496 kts | 123° |
| 2026-05-04 15:44 | 42.72336 | 18.37324 | 37131 ft | 496 kts | 123° |
| 2026-05-04 15:44 | 42.68400 | 18.45028 | 37138 ft | 497 kts | 123° |
| 2026-05-04 15:45 | 42.64443 | 18.52727 | 37131 ft | 497 kts | 123° |
| 2026-05-04 15:45 | 42.60480 | 18.60434 | 37133 ft | 497 kts | 123° |
| 2026-05-04 15:46 | 42.56526 | 18.68135 | 37138 ft | 498 kts | 123° |
| 2026-05-04 15:46 | 42.52555 | 18.75830 | 37125 ft | 498 kts | 123° |
| 2026-05-04 15:47 | 42.48571 | 18.83531 | 37123 ft | 499 kts | 123° |
| 2026-05-04 15:47 | 42.44583 | 18.91202 | 37096 ft | 490 kts | 123° |
| 2026-05-04 15:47 | 42.42645 | 18.94915 | 37099 ft | 478 kts | 123° |
| 2026-05-04 15:48 | 42.40910 | 18.98711 | 37093 ft | 471 kts | 112° |
| 2026-05-04 15:48 | 42.39864 | 19.02878 | 37089 ft | 465 kts | 101° |
| 2026-05-04 15:48 | 42.38359 | 19.11376 | 37083 ft | 465 kts | 100° |
| 2026-05-04 15:49 | 42.36874 | 19.19882 | 37046 ft | 465 kts | 100° |
| 2026-05-04 15:49 | 42.36126 | 19.24137 | 36764 ft | 464 kts | 100° |
| 2026-05-04 15:49 | 42.35374 | 19.28374 | 36504 ft | 464 kts | 100° |
| 2026-05-04 15:50 | 42.34616 | 19.32618 | 36244 ft | 465 kts | 100° |
| 2026-05-04 15:50 | 42.33855 | 19.36865 | 35989 ft | 465 kts | 100° |
| 2026-05-04 15:50 | 42.33089 | 19.41118 | 35738 ft | 465 kts | 100° |
| 2026-05-04 15:50 | 42.32328 | 19.45358 | 35488 ft | 465 kts | 100° |
| 2026-05-04 15:51 | 42.31563 | 19.49620 | 35271 ft | 466 kts | 99° |
| 2026-05-04 15:51 | 42.30806 | 19.53816 | 35030 ft | 466 kts | 99° |
| 2026-05-04 15:51 | 42.30037 | 19.58062 | 34787 ft | 466 kts | 99° |
| 2026-05-04 15:51 | 42.29263 | 19.62316 | 34552 ft | 466 kts | 99° |
| 2026-05-04 15:52 | 42.28490 | 19.66571 | 34322 ft | 467 kts | 99° |
| 2026-05-04 15:52 | 42.27716 | 19.70835 | 34077 ft | 466 kts | 99° |
| 2026-05-04 15:52 | 42.26941 | 19.75093 | 33803 ft | 467 kts | 99° |
| 2026-05-04 15:52 | 42.26165 | 19.79353 | 33165 ft | 467 kts | 99° |
| 2026-05-04 15:53 | 42.25386 | 19.83601 | 32577 ft | 463 kts | 99° |
| 2026-05-04 15:53 | 42.24613 | 19.87800 | 31968 ft | 460 kts | 99° |
| 2026-05-04 15:53 | 42.23840 | 19.91976 | 31373 ft | 457 kts | 99° |
| 2026-05-04 15:53 | 42.23068 | 19.96140 | 30768 ft | 456 kts | 99° |
| 2026-05-04 15:54 | 42.22300 | 20.00282 | 30187 ft | 454 kts | 99° |
| 2026-05-04 15:54 | 42.21534 | 20.04410 | 29541 ft | 451 kts | 99° |
| 2026-05-04 15:54 | 42.20775 | 20.08499 | 28980 ft | 447 kts | 99° |
| 2026-05-04 15:54 | 42.20023 | 20.12549 | 28418 ft | 443 kts | 99° |
| 2026-05-04 15:55 | 42.19276 | 20.16557 | 27840 ft | 440 kts | 99° |
| 2026-05-04 15:55 | 42.18528 | 20.20546 | 27298 ft | 436 kts | 99° |
| 2026-05-04 15:55 | 42.17787 | 20.24491 | 26747 ft | 432 kts | 99° |
| 2026-05-04 15:55 | 42.17054 | 20.28395 | 26231 ft | 428 kts | 99° |
| 2026-05-04 15:56 | 42.16327 | 20.32264 | 25708 ft | 424 kts | 99° |
| 2026-05-04 15:56 | 42.15603 | 20.36103 | 25220 ft | 420 kts | 99° |
| 2026-05-04 15:56 | 42.14896 | 20.39839 | 24733 ft | 416 kts | 99° |
| 2026-05-04 15:56 | 42.14209 | 20.43612 | 24245 ft | 411 kts | 96° |
| 2026-05-04 15:57 | 42.13993 | 20.47382 | 23799 ft | 399 kts | 82° |
| 2026-05-04 15:57 | 42.14388 | 20.51035 | 23232 ft | 388 kts | 70° |
| 2026-05-04 15:57 | 42.15328 | 20.54380 | 22777 ft | 377 kts | 59° |
| 2026-05-04 15:57 | 42.16678 | 20.57365 | 22300 ft | 371 kts | 53° |
| 2026-05-04 15:58 | 42.18074 | 20.60262 | 21840 ft | 367 kts | 53° |
| 2026-05-04 15:58 | 42.19453 | 20.63143 | 21372 ft | 363 kts | 54° |
| 2026-05-04 15:58 | 42.20372 | 20.65072 | 21058 ft | 361 kts | 54° |
| 2026-05-04 15:58 | 42.22164 | 20.68836 | 20398 ft | 358 kts | 54° |
| 2026-05-04 15:59 | 42.23074 | 20.70746 | 20064 ft | 357 kts | 54° |
| 2026-05-04 15:59 | 42.24413 | 20.73559 | 19571 ft | 355 kts | 54° |
| 2026-05-04 15:59 | 42.25747 | 20.76360 | 19082 ft | 354 kts | 54° |
| 2026-05-04 15:59 | 42.27079 | 20.79147 | 18589 ft | 353 kts | 54° |
| 2026-05-04 16:00 | 42.28408 | 20.81928 | 18071 ft | 352 kts | 55° |
| 2026-05-04 16:00 | 42.29728 | 20.84699 | 17568 ft | 349 kts | 55° |
| 2026-05-04 16:00 | 42.31037 | 20.87449 | 17096 ft | 346 kts | 55° |
| 2026-05-04 16:00 | 42.32334 | 20.90178 | 16626 ft | 344 kts | 55° |
| 2026-05-04 16:01 | 42.33616 | 20.92890 | 16163 ft | 341 kts | 55° |
| 2026-05-04 16:01 | 42.34887 | 20.95586 | 15709 ft | 339 kts | 55° |
| 2026-05-04 16:01 | 42.36148 | 20.98262 | 15255 ft | 337 kts | 55° |
| 2026-05-04 16:01 | 42.37408 | 21.00933 | 14806 ft | 335 kts | 55° |
| 2026-05-04 16:02 | 42.38658 | 21.03582 | 14355 ft | 333 kts | 55° |
| 2026-05-04 16:02 | 42.39904 | 21.06218 | 13881 ft | 332 kts | 55° |
| 2026-05-04 16:02 | 42.42387 | 21.11476 | 12828 ft | 330 kts | 56° |
| 2026-05-04 16:03 | 42.43596 | 21.14049 | 12650 ft | 318 kts | 56° |
| 2026-05-04 16:03 | 42.44760 | 21.16532 | 12516 ft | 306 kts | 57° |
| 2026-05-04 16:03 | 42.45880 | 21.18917 | 12381 ft | 294 kts | 57° |
| 2026-05-04 16:03 | 42.46942 | 21.21235 | 12263 ft | 284 kts | 62° |
| 2026-05-04 16:04 | 42.47407 | 21.23763 | 12124 ft | 277 kts | 90° |
| 2026-05-04 16:04 | 42.45617 | 21.28106 | 11584 ft | 274 kts | 139° |
| 2026-05-04 16:04 | 42.44099 | 21.29671 | 10985 ft | 274 kts | 140° |
| 2026-05-04 16:05 | 42.42572 | 21.31193 | 10490 ft | 270 kts | 141° |
| 2026-05-04 16:05 | 42.41071 | 21.32679 | 10054 ft | 265 kts | 141° |
| 2026-05-04 16:05 | 42.38138 | 21.35602 | 8900 ft | 260 kts | 143° |
| 2026-05-04 16:06 | 42.36473 | 21.36547 | 8268 ft | 264 kts | 171° |
| 2026-05-04 16:06 | 42.32568 | 21.33792 | 7219 ft | 243 kts | 234° |
| 2026-05-04 16:07 | 42.31579 | 21.31125 | 6651 ft | 235 kts | 267° |
| 2026-05-04 16:07 | 42.32073 | 21.24680 | 6609 ft | 227 kts | 281° |
| 2026-05-04 16:08 | 42.32313 | 21.22576 | 6604 ft | 225 kts | 288° |
| 2026-05-04 16:08 | 42.34542 | 21.17165 | 6069 ft | 217 kts | 320° |
| 2026-05-04 16:09 | 42.36884 | 21.14652 | 5568 ft | 214 kts | 325° |
| 2026-05-04 16:09 | 42.39282 | 21.12229 | 5067 ft | 217 kts | 326° |
| 2026-05-04 16:10 | 42.41682 | 21.09773 | 4564 ft | 216 kts | 326° |
| 2026-05-04 16:11 | 42.45124 | 21.06212 | 4178 ft | 187 kts | 325° |
| 2026-05-04 16:11 | 42.46127 | 21.05182 | 4177 ft | 177 kts | 328° |
| 2026-05-04 16:12 | 42.49518 | 21.04380 | 3307 ft | 155 kts | 358° |
| 2026-05-04 16:12 | 42.52591 | 21.04067 | 2582 ft | 146 kts | 358° |
| 2026-05-04 16:13 | 42.54627 | 21.03864 | 2136 ft | 147 kts | 355° |
| 2026-05-04 16:13 | 42.56633 | 21.03653 | 1785 ft | 131 kts | 356° |
| 2026-05-04 16:14 | 42.57805 | 21.03504 | 1784 ft | 38 kts | 337° |
| 2026-05-04 16:14 | 42.58011 | 21.03317 | 1790 ft | 8 kts | 299° |
| 2026-05-04 16:15 | 42.57718 | 21.03299 | 1787 ft | 23 kts | 175° |
| 2026-05-04 16:16 | 42.57515 | 21.03221 | 1787 ft | 14 kts | 177° |
| 2026-05-04 16:16 | 42.57472 | 21.03143 | 1787 ft | 1 kts | 265° |
| 2026-05-04 16:17 | 42.57472 | 21.03141 | 1787 ft | 0 kts | 265° |